Flight Track Log - Related Links

Times and Time Zones

All times are in EDT time to prevent confusion due to time zone crossing. See the EGF4174 flight status page for this flight to view local times or setup timezone preferences in your user account.

Time Position Orientation Groundspeed Altitude Reporting Facility
EDT Latitude Longitude Course Direction KTS MPH feet Rate Location/Type
Wed 04:55:09 PM 43.1089 -76.0922 286° West 147 169 1,200  Level Boston Center
Wed 04:55:58 PM 43.1350 -76.0567 45° Northeast 202 232 2,800 2,018 Climbing Boston Center
Wed 04:56:59 PM 43.1619 -76.1267 298° West 267 307 4,900 2,348 Climbing Boston Center
Wed 04:57:00 PM 43.2000 -76.4524 270° West  Level FlightAware Approximate
Wed 04:57:53 PM 43.1611 -76.2178 269° West 272 313 7,300  Level Boston Center
Wed 04:58:00 PM 43.2117 -76.5819 281° West  Level FlightAware Approximate
Wed 04:59:00 PM 43.2364 -76.7084 286° West  Level FlightAware Approximate
Wed 05:00:00 PM 43.2633 -76.8342 286° West  Level FlightAware Approximate
Wed 05:00:22 PM 43.2092 -76.4925 284° West 307 353 11,800  Level Cleveland Center
Wed 05:01:22 PM 43.2303 -76.6194 283° West 328 377 13,600 1,850 Climbing Cleveland Center
Wed 05:02:22 PM 43.2367 -76.7500 274° West 340 391 15,500 1,850 Climbing Cleveland Center
Wed 05:03:22 PM 43.2222 -76.8850 262° West 346 398 17,300 1,600 Climbing Cleveland Center
Wed 05:04:22 PM 43.2097 -77.0169 263° West 352 405 18,700 1,450 Climbing Cleveland Center
Wed 05:05:22 PM 43.2114 -77.1392 271° West 352 405 20,200 1,613 Climbing Cleveland Center
Wed 05:06:21 PM 43.2092 -77.2789 269° West 364 419 21,900 1,664 Climbing Cleveland Center
Wed 05:07:21 PM 43.2069 -77.4186 269° West 364 419 23,500 1,587 Climbing Cleveland Center
Wed 05:08:22 PM 43.2064 -77.5583 270° West 364 419 25,100 1,537 Climbing Cleveland Center
Wed 05:09:22 PM 43.2058 -77.7036 270° West 364 419 26,600 1,400 Climbing Cleveland Center
Wed 05:10:22 PM 43.2031 -77.8461 269° West 369 425 27,900 1,300 Climbing Cleveland Center
Wed 05:11:22 PM 43.2022 -77.9886 270° West 369 425 29,200 1,450 Climbing Cleveland Center
Wed 05:12:22 PM 43.1975 -78.1511 268° West 383 441 30,800 1,400 Climbing Cleveland Center
Wed 05:13:22 PM 43.1964 -78.2994 269° West 388 447 32,000 1,200 Climbing Cleveland Center
Wed 05:14:22 PM 43.1931 -78.4503 268° West 393 452 33,200 1,200 Climbing Cleveland Center
Wed 05:15:22 PM 43.1914 -78.5986 269° West 393 452 34,400 1,200 Climbing Cleveland Center
Wed 05:16:22 PM 43.1875 -78.7494 268° West 398 458 35,600 800 Climbing Cleveland Center
Wed 05:17:22 PM 43.1858 -78.9033 269° West 403 464 36,000 222 Climbing Cleveland Center
Wed 05:18:10 PM 43.1667 -79.0167 257° West 420 483 36,000  Level Toronto Center
Wed 05:19:10 PM 43.1667 -79.1833 270° West 430 495 36,000  Level Toronto Center
Wed 05:20:10 PM 43.1667 -79.3333 270° West 450 518 36,000  Level Toronto Center
Wed 05:21:10 PM 43.1500 -79.5167 263° West 450 518 36,000  Level Toronto Center
Wed 05:22:10 PM 43.1500 -79.7000 270° West 440 506 36,000  Level Toronto Center
Wed 05:23:10 PM 43.1500 -79.8667 270° West 440 506 36,000  Level Toronto Center
Wed 05:24:10 PM 43.1333 -80.0167 261° West 440 506 36,000  Level Toronto Center
Wed 05:25:10 PM 43.1333 -80.1833 270° West 450 518 36,000  Level Toronto Center
Wed 05:26:10 PM 43.1333 -80.3667 270° West 440 506 36,000  Level Toronto Center
Wed 05:27:10 PM 43.1333 -80.5167 270° West 440 506 36,000  Level Toronto Center
Wed 05:28:10 PM 43.1167 -80.7000 263° West 440 506 36,000  Level Toronto Center
Wed 05:29:10 PM 43.1000 -80.8667 262° West 440 506 36,000  Level Toronto Center
Wed 05:30:10 PM 43.1000 -81.0333 270° West 440 506 36,000  Level Toronto Center
Wed 05:31:10 PM 43.0833 -81.1833 261° West 440 506 36,000 -700 Level Toronto Center
Wed 05:32:10 PM 43.0833 -81.3500 270° West 440 506 34,600 -1,450 Descending Toronto Center
Wed 05:33:10 PM 43.0833 -81.5333 270° West 430 495 33,100 -1,300 Descending Toronto Center
Wed 05:34:10 PM 43.0667 -81.6833 261° West 420 483 32,000 -550 Descending Toronto Center
Wed 05:35:10 PM 43.0667 -81.8500 270° West 430 495 32,000  Level Toronto Center
Wed 05:36:10 PM 43.0500 -82.0000 261° West 430 495 32,000  Level Toronto Center
Wed 05:37:10 PM 43.0500 -82.1833 270° West 440 506 32,000 -200 Level Toronto Center
Wed 05:38:10 PM 43.0333 -82.3500 262° West 440 506 31,600 -850 Descending Toronto Center
Wed 05:39:10 PM 43.0333 -82.5000 270° West 440 506 30,300 -1,167 Descending Toronto Center
Wed 05:39:58 PM 43.0317 -82.6367 269° West 439 505 29,500 -1,178 Descending Cleveland Center
Wed 05:40:57 PM 43.0244 -82.8011 267° West 439 505 28,200 -756 Descending Cleveland Center
Wed 05:41:57 PM 43.0128 -82.9711 265° West 444 511 28,000 -99 Descending Cleveland Center
Wed 05:42:58 PM 43.0028 -83.1411 265° West 444 511 28,000  Level Cleveland Center
Wed 05:43:58 PM 42.9928 -83.3081 265° West 444 511 28,000  Level Cleveland Center
Wed 05:44:58 PM 42.9825 -83.4781 265° West 449 517 28,000  Level Cleveland Center
Wed 05:45:58 PM 42.9697 -83.6506 264° West 454 522 28,000  Level Cleveland Center
Wed 05:46:58 PM 42.9589 -83.8144 265° West 454 522 28,000  Level Cleveland Center
Wed 05:47:58 PM 42.9417 -83.9783 262° West 449 517 28,000  Level Cleveland Center
Wed 05:48:58 PM 42.9256 -84.1644 263° West 449 517 28,000  Level Cleveland Center
Wed 05:49:58 PM 42.9081 -84.3281 262° West 444 511 28,000  Level Cleveland Center
Wed 05:50:58 PM 42.8947 -84.4775 263° West 437 503 28,000  Level Cleveland Center
Wed 05:51:57 PM 42.8778 -84.6436 262° West 445 512 28,000  Level Chicago Center
Wed 05:52:59 PM 42.8597 -84.8111 262° West 446 513 28,000  Level Chicago Center
Wed 05:54:01 PM 42.8419 -84.9783 262° West 447 514 28,000  Level Chicago Center
Wed 05:55:03 PM 42.8236 -85.1478 262° West 450 518 28,000  Level Chicago Center
Wed 05:56:05 PM 42.8022 -85.3500 262° West 449 517 28,000  Level Chicago Center
Wed 05:57:07 PM 42.7833 -85.5197 261° West 452 520 28,000 -484 Level Chicago Center
Wed 05:58:09 PM 42.7528 -85.6853 256° West 451 519 27,000 -1,536 Descending Chicago Center
Wed 05:59:12 PM 42.7219 -85.8539 256° West 455 524 24,800 -2,112 Descending Chicago Center
Wed 06:00:14 PM 42.6933 -86.0142 256° West 438 504 22,600 -2,032 Descending Chicago Center
Wed 06:01:16 PM 42.6647 -86.1706 256° West 428 493 20,600 -1,258 Descending Chicago Center
Wed 06:02:18 PM 42.6356 -86.3211 255° West 414 476 20,000 -290 Descending Chicago Center
Wed 06:03:20 PM 42.6022 -86.4958 256° West 399 459 20,000 -871 Level Chicago Center
Wed 06:04:22 PM 42.5758 -86.6417 256° West 398 458 18,200 -1,790 Descending Chicago Center
Wed 06:05:24 PM 42.5481 -86.7800 255° West 385 443 16,300 -1,887 Descending Chicago Center
Wed 06:06:26 PM 42.5108 -86.9125 249° West 378 435 14,300 -1,872 Descending Chicago Center
Wed 06:07:29 PM 42.4769 -87.0386 250° West 361 415 12,400 -1,488 Descending Chicago Center
Wed 06:08:31 PM 42.4461 -87.1458 249° West 314 361 11,200 -1,258 Descending Chicago Center
Wed 06:09:33 PM 42.4142 -87.2597 249° West 273 314 9,800 -1,065 Descending Chicago Center
Wed 06:10:35 PM 42.3892 -87.3522 250° West 264 304 9,000 -871 Descending Chicago Center
Wed 06:11:37 PM 42.3608 -87.4519 249° West 260 299 8,000 -968 Descending Chicago Center
Wed 06:12:39 PM 42.3333 -87.5314 245° Southwest 252 290 7,000 -484 Descending Chicago Center
Wed 06:13:41 PM 42.2817 -87.5783 214° Southwest 214 246 7,000 -145 Level Chicago Center
Wed 06:14:43 PM 42.2389 -87.6317 223° Southwest 211 243 6,700 -581 Descending Chicago Center
Wed 06:15:45 PM 42.1978 -87.6739 217° Southwest 191 220 5,800 -871 Descending Chicago Center

Login

Don't have an account? Register now (free) for customized features, flight alerts, and more!